• Join FlightAware (Why Join?)
  • Login
  • US Flag 
08:24AM EDT


 

Airport Tracker/Info


-or-


 

Live Flight TrackerFlight Track Log ✈ ASQ4103 ✈ 18-Nov-2013 ✈ KATL - KIAH

Flight Track Log - Related Links

Times and Time Zones

All times are in EST time to prevent confusion due to time zone crossing. See the ASQ4103 flight status page for this flight to view local times or setup timezone preferences in your user account.

Time Position Orientation Groundspeed Altitude Reporting Facility
EST Latitude Longitude Course Direction KTS MPH feet Rate Location/Type
05:01PM 33.6500 -84.4500 246° West 163 188 2,500  Level Atlanta TRACON
05:02PM 33.6500 -84.5167 270° West 223 257 4,200 2,280 Climbing Atlanta TRACON
05:03PM 33.6667 -84.6000 284° West 260 299 7,100 2,460 Climbing Atlanta TRACON
05:04PM 33.6833 -84.6833 284° West 260 299 9,200 1,620 Climbing Atlanta TRACON
05:06PM 33.4798 -84.9840 246° West  Level Estimated
05:06PM 33.6558 -84.8747 260° West 284 327 12,300  Level Atlanta Center
05:07PM 33.6153 -84.9767 244° Southwest 324 373 13,900 1,800 Climbing Atlanta Center
05:08PM 33.5728 -85.0786 243° Southwest 339 390 15,900 1,920 Climbing Atlanta Center
05:09PM 33.5258 -85.1900 243° Southwest 344 396 17,800 1,620 Climbing Atlanta Center
05:10PM 33.5019 -85.2994 255° West 337 388 19,200 1,440 Climbing Atlanta Center
05:11PM 33.4839 -85.4086 259° West 337 388 20,700 1,440 Climbing Atlanta Center
05:12PM 33.4681 -85.5181 260° West 337 388 22,100 1,260 Climbing Atlanta Center
05:13PM 33.4500 -85.6272 259° West 337 388 23,300 1,140 Climbing Atlanta Center
05:14PM 33.4339 -85.7389 260° West 337 388 24,400 1,080 Climbing Atlanta Center
05:15PM 33.4158 -85.8358 257° West 337 388 25,500 1,080 Climbing Atlanta Center
05:16PM 33.3975 -85.9472 259° West 337 388 26,600 1,020 Climbing Atlanta Center
05:17PM 33.3769 -86.0564 257° West 337 388 27,600 900 Climbing Atlanta Center
05:18PM 33.3606 -86.1728 260° West 348 400 28,500 900 Climbing Atlanta Center
05:19PM 33.3417 -86.2892 259° West 353 406 29,500 900 Climbing Atlanta Center
05:20PM 33.3228 -86.4081 259° West 361 415 30,400 900 Climbing Atlanta Center
05:21PM 33.3042 -86.5094 258° West 361 415 31,300 900 Climbing Atlanta Center
05:22PM 33.2844 -86.6431 260° West 361 415 32,300 900 Climbing Atlanta Center
05:23PM 33.2653 -86.7617 259° West 367 422 33,200 900 Climbing Atlanta Center
05:24PM 33.2439 -86.8753 257° West 372 428 34,200 900 Climbing Atlanta Center
05:25PM 33.2122 -86.9886 252° West 366 421 35,100 900 Climbing Atlanta Center
05:26PM 33.1572 -87.1008 240° Southwest 366 421 36,000 420 Climbing Atlanta Center
05:27PM 33.1106 -87.2083 243° Southwest 360 414 36,000  Level Atlanta Center
05:28PM 33.0597 -87.3178 241° Southwest 366 421 36,000  Level Atlanta Center
05:29PM 33.0217 -87.4106 244° Southwest 372 428 36,000  Level Atlanta Center
05:31PM 32.9189 -87.6383 242° Southwest 392 451 36,000  Level Memphis Center
05:32PM 32.8664 -87.7503 241° Southwest 389 448 36,000  Level Memphis Center
05:33PM 32.8139 -87.8644 241° Southwest 391 450 36,000  Level Memphis Center
05:34PM 32.7575 -87.9881 242° Southwest 390 449 36,000  Level Memphis Center
05:35PM 32.7061 -88.1000 241° Southwest 390 449 36,000  Level Memphis Center
05:36PM 32.6547 -88.2119 241° Southwest 388 447 36,000  Level Memphis Center
05:37PM 32.6028 -88.3225 241° Southwest 387 445 36,000  Level Memphis Center
05:38PM 32.5419 -88.4550 241° Southwest 384 442 36,000  Level Memphis Center
05:39PM 32.4903 -88.5647 241° Southwest 384 442 36,000  Level Memphis Center
05:40PM 32.4386 -88.6747 241° Southwest 384 442 36,000  Level Memphis Center
05:41PM 32.3867 -88.7842 241° Southwest 384 442 36,000  Level Memphis Center
05:43PM 32.3500 -88.9017 250° West 386 444 36,000  Level Memphis Center
05:44PM 32.3167 -89.0208 252° West 383 441 36,000  Level Memphis Center
05:45PM 32.2744 -89.1664 251° West 388 447 36,000  Level Memphis Center
05:46PM 32.2392 -89.2872 251° West 390 449 36,000  Level Memphis Center
05:47PM 32.2044 -89.4081 251° West 390 449 36,000  Level Memphis Center
05:48PM 32.1692 -89.5283 251° West 390 449 36,000  Level Memphis Center
05:49PM 32.1336 -89.6500 251° West 391 450 36,000  Level Memphis Center
05:50PM 32.0903 -89.7944 251° West 391 450 36,000  Level Memphis Center
05:51PM 32.0550 -89.9150 251° West 391 450 36,000  Level Memphis Center
05:52PM 32.0192 -90.0364 251° West 392 451 36,000  Level Memphis Center
05:53PM 31.9822 -90.1578 250° West 394 453 36,000  Level Memphis Center
05:54PM 31.9464 -90.2794 251° West 395 455 36,000  Level Memphis Center
05:55PM 31.9175 -90.3792 251° West 397 457 36,000  Level Houston Center
05:56PM 31.8800 -90.5014 250° West 399 459 36,000  Level Houston Center
05:57PM 31.8425 -90.6244 250° West 401 461 36,000  Level Houston Center
05:58PM 31.8053 -90.7483 251° West 403 464 36,000  Level Houston Center
05:59PM 31.7686 -90.8717 251° West 402 463 36,000  Level Houston Center
06:00PM 31.7300 -90.9944 250° West 402 463 36,000  Level Houston Center
06:01PM 31.6839 -91.1281 248° West 405 466 36,000  Level Houston Center
06:02PM 31.6297 -91.2453 242° Southwest 407 468 36,000  Level Houston Center
06:03PM 31.5783 -91.3633 243° Southwest 407 468 36,000  Level Houston Center
06:04PM 31.5144 -91.5061 242° Southwest 412 474 36,000  Level Houston Center
06:05PM 31.4631 -91.6247 243° Southwest 410 472 36,000  Level Houston Center
06:06PM 31.4083 -91.7439 242° Southwest 414 476 36,000  Level Houston Center
06:07PM 31.3558 -91.8622 243° Southwest 411 473 36,000  Level Houston Center
06:08PM 31.3017 -91.9811 242° Southwest 413 475 36,000 -60 Level Houston Center
06:09PM 31.2456 -92.1081 243° Southwest 413 475 35,900  Descending Houston Center
06:10PM 31.1911 -92.2269 242° Southwest 416 479 36,000  Climbing Houston Center
06:11PM 31.1256 -92.3681 242° Southwest 414 476 36,000  Level Houston Center
06:12PM 31.0717 -92.4881 242° Southwest 418 481 36,000 -360 Level Houston Center
06:13PM 31.0186 -92.6069 243° Southwest 415 478 35,300 -1,020 Descending Houston Center
06:14PM 30.9653 -92.7247 242° Southwest 414 476 33,900 -1,380 Descending Houston Center
06:15PM 30.9114 -92.8436 242° Southwest 414 476 32,500 -1,500 Descending Houston Center
06:16PM 30.8567 -92.9617 242° Southwest 415 478 30,800 -1,860 Descending Houston Center
06:17PM 30.7894 -93.1033 241° Southwest 417 480 28,700 -1,920 Descending Houston Center
06:18PM 30.7342 -93.2250 242° Southwest 424 488 26,900 -1,740 Descending Houston Center
06:19PM 30.6772 -93.3475 242° Southwest 431 496 25,200 -1,680 Descending Houston Center
06:20PM 30.6208 -93.4669 241° Southwest 428 493 23,500 -1,500 Descending Houston Center
06:21PM 30.5558 -93.6081 242° Southwest 420 483 22,100 -1,260 Descending Houston Center
06:22PM 30.5025 -93.7231 242° Southwest 415 478 21,000 -1,200 Descending Houston Center
06:24PM 30.4483 -93.8364 241° Southwest 409 471 19,700 -1,620 Descending Houston Center
06:25PM 30.3950 -93.9481 241° Southwest 402 463 17,700 -1,920 Descending Houston Center
06:26PM 30.3431 -94.0572 241° Southwest 392 451 15,800 -2,040 Descending Houston Center
06:27PM 30.2883 -94.1711 241° Southwest 374 430 13,700 -2,280 Descending Houston Center
06:27PM 30.2842 -94.1847 250° West 380 437 13,500 -1,560 Descending Houston Center
06:27PM 30.2447 -94.2617 239° Southwest 365 420 12,400 -1,380 Descending Houston Center
06:28PM 30.2347 -94.2853 244° Southwest 367 422 12,100 -420 Descending Houston Center
06:28PM 30.1967 -94.3694 242° Southwest 342 394 12,000 -240 Descending Houston Center
06:29PM 30.1936 -94.3858 258° West 352 405 11,900 -120 Descending Houston Center
06:29PM 30.1775 -94.4736 258° West 332 382 11,900 -240 Level Houston Center
06:30PM 30.1753 -94.4889 260° West 332 382 11,700 -1,020 Descending Houston Center
06:31PM 30.1581 -94.5961 260° West 340 391 10,600 -960 Descending Houston Center
06:32PM 30.1372 -94.7086 258° West 342 394 9,900 -600 Descending Houston Center
06:32PM 30.1364 -94.7253 267° West 342 394 10,000 60 Climbing Houston Center
06:33PM 30.1203 -94.8147 258° West 337 388 10,000  Level Houston Center
06:33PM 30.1178 -94.8311 260° West 339 390 10,000 -120 Level Houston Center
06:34PM 30.1061 -94.9106 260° West 330 380 9,900 -120 Descending Houston Center
06:34PM 30.1056 -94.9336 268° West 324 373 9,900 -1,020 Level Houston Center
06:35PM 30.1058 -95.0169 270° West 281 323 8,800 -1,200 Descending Houston Center
06:35PM 30.1067 -95.0217 282° West 285 328 8,700 -1,500 Descending Houston Center
06:36PM 30.1053 -95.1017 269° West 289 333 7,400 -1,440 Descending Houston Center
06:36PM 30.1067 -95.1133 278° West 285 328 7,200 -1,200 Descending Houston Center
06:37PM 30.1050 -95.1886 269° West 270 311 6,200 -1,200 Descending Houston Center
06:37PM 30.1067 -95.2175 274° West 274 315 6,000 -180 Descending Houston Center
06:38PM 30.1069 -95.2778 270° West 240 276 6,000  Level Houston Center
06:38PM 30.1067 -95.2931 269° West 246 283 6,000 -120 Level Houston Center
06:39PM 30.1058 -95.3575 269° West 251 289 5,900 -420 Descending Houston Center
06:39PM 30.1075 -95.3719 278° West 246 283 5,600 -1,200 Descending Houston Center
06:40PM 30.1064 -95.4347 269° West 241 277 4,700 -1,200 Descending Houston Center
06:40PM 30.1061 -95.4492 269° West 243 280 4,400 -1,140 Descending Houston Center
06:41PM 30.0983 -95.5081 261° West 254 292 3,700 -1,020 Descending Houston Center
06:41PM 30.0850 -95.5169 210° Southwest 254 292 3,400 -900 Descending Houston Center
06:42PM 30.0408 -95.5222 186° South 183 211 2,800 -900 Descending Houston Center
06:42PM 30.0283 -95.5058 131° Southeast 188 216 2,500 -720 Descending Houston Center
06:43PM 30.0119 -95.4797 126° Southeast 163 188 2,100 -720 Descending Houston Center
06:43PM 30.0058 -95.4614 111° Southeast 169 194 1,800 -720 Descending Houston Center
06:44PM 30.0058 -95.4347 90° East 134 154 1,400 -720 Descending Houston Center
06:44PM 30.0072 -95.4192 84° East 145 167 1,100 -660 Descending Houston Center
06:45PM 30.0061 -95.3914 93° East 120 138 700 -600 Descending Houston Center
06:45PM 30.0072 -95.3797 84° East 128 147 500 -300 Descending Houston Center
06:46PM 30.0069 -95.3411 90° East 127 146 300 -240 Descending Houston Center